createdAt,value
2016-12-02T00:00:10.109Z,17.89
2016-12-02T00:00:38.167Z,17.84
2016-12-02T00:01:06.241Z,17.92
2016-12-02T00:01:34.048Z,17.82
2016-12-02T00:02:02.024Z,17.81
2016-12-02T00:02:30.006Z,17.93
2016-12-02T00:02:58.901Z,17.93
2016-12-02T00:03:26.803Z,17.93
2016-12-02T00:03:54.675Z,17.96
2016-12-02T00:04:23.524Z,17.96
2016-12-02T00:04:51.610Z,18
2016-12-02T00:05:20.460Z,18.05
2016-12-02T00:05:48.539Z,18.05
2016-12-02T00:06:18.162Z,18
2016-12-02T00:06:47.705Z,18.05
2016-12-02T00:07:16.454Z,17.92
2016-12-02T00:07:44.545Z,17.97
2016-12-02T00:08:13.313Z,17.86
2016-12-02T00:08:41.285Z,17.84
2016-12-02T00:09:10.136Z,17.81
2016-12-02T00:09:38.901Z,17.81
2016-12-02T00:10:06.967Z,17.75
2016-12-02T00:10:35.726Z,17.75
2016-12-02T00:11:03.698Z,17.78
2016-12-02T00:11:31.997Z,17.72
2016-12-02T00:12:00.070Z,17.78
2016-12-02T00:12:28.133Z,17.79
2016-12-02T00:12:56.980Z,17.77
2016-12-02T00:13:24.972Z,17.79
2016-12-02T00:13:52.958Z,17.72
2016-12-02T00:14:20.948Z,17.78
2016-12-02T00:14:49.023Z,17.74
2016-12-02T00:15:17.887Z,17.79
2016-12-02T00:15:47.437Z,17.77
2016-12-02T00:16:15.514Z,17.77
2016-12-02T00:16:44.594Z,17.74
2016-12-02T00:17:12.670Z,17.75
2016-12-02T00:17:40.747Z,17.75
2016-12-02T00:18:09.401Z,17.78
2016-12-02T00:18:37.367Z,17.84
2016-12-02T00:19:06.133Z,17.89
2016-12-02T00:19:34.992Z,17.92
2016-12-02T00:20:02.974Z,17.82
2016-12-02T00:20:30.940Z,17.87
2016-12-02T00:20:59.796Z,17.9
2016-12-02T00:21:27.786Z,17.95
2016-12-02T00:21:55.686Z,17.93
2016-12-02T00:22:24.444Z,17.96
2016-12-02T00:22:54.226Z,17.86
2016-12-02T00:23:22.886Z,17.86
2016-12-02T00:23:51.735Z,17.87
2016-12-02T00:24:19.797Z,17.87
2016-12-02T00:24:47.792Z,17.89
2016-12-02T00:25:15.774Z,17.86
2016-12-02T00:25:45.400Z,17.92
2016-12-02T00:26:13.460Z,17.93
2016-12-02T00:26:42.219Z,17.92
2016-12-02T00:27:10.105Z,17.84
2016-12-02T00:27:37.996Z,17.95
2016-12-02T00:28:06.844Z,17.92
2016-12-02T00:28:35.019Z,17.92
2016-12-02T00:29:02.996Z,17.87
2016-12-02T00:29:30.971Z,17.9
2016-12-02T00:29:58.949Z,17.93
2016-12-02T00:30:27.805Z,17.9
2016-12-02T00:30:55.788Z,17.93
2016-12-02T00:31:23.665Z,17.95
2016-12-02T00:31:52.417Z,17.84
2016-12-02T00:32:20.489Z,17.89
2016-12-02T00:32:48.575Z,17.86
2016-12-02T00:33:16.557Z,17.89
2016-12-02T00:33:45.423Z,17.81
2016-12-02T00:34:14.282Z,17.89
2016-12-02T00:35:20.590Z,17.92
2016-12-02T00:35:49.344Z,17.9
2016-12-02T00:36:18.189Z,17.89
2016-12-02T00:36:46.967Z,17.86
2016-12-02T00:37:15.031Z,17.9
2016-12-02T00:37:43.792Z,17.84
2016-12-02T00:38:12.021Z,17.78
2016-12-02T00:38:40.093Z,17.86
2016-12-02T00:39:08.954Z,17.82
2016-12-02T00:39:37.023Z,17.79
2016-12-02T00:40:05.095Z,17.9
2016-12-02T00:40:33.942Z,17.82
2016-12-02T00:41:01.825Z,17.84
2016-12-02T00:41:29.804Z,17.81
2016-12-02T00:41:57.800Z,17.9
2016-12-02T00:42:25.782Z,17.92
2016-12-02T00:42:53.857Z,17.82
2016-12-02T00:43:23.489Z,17.82
2016-12-02T00:43:51.484Z,17.89
2016-12-02T00:44:20.929Z,17.84
2016-12-02T00:44:49.783Z,17.87
2016-12-02T00:45:17.768Z,17.93
2016-12-02T00:45:46.255Z,17.96
2016-12-02T00:46:14.326Z,17.96
2016-12-02T00:46:42.301Z,17.92
2016-12-02T00:47:11.927Z,17.97
2016-12-02T00:47:41.560Z,18.07
2016-12-02T00:48:09.439Z,17.96
2016-12-02T00:48:37.519Z,18
2016-12-02T00:49:06.370Z,18.02
2016-12-02T00:49:34.444Z,18.08
2016-12-02T00:50:03.222Z,17.97
2016-12-02T00:50:33.059Z,17.99
2016-12-02T00:51:01.031Z,18.03
2016-12-02T00:51:29.895Z,18.1
2016-12-02T00:51:58.552Z,18.02
2016-12-02T00:52:27.306Z,18.02
2016-12-02T00:52:56.165Z,18
2016-12-02T00:53:24.378Z,18.05
2016-12-02T00:53:52.452Z,17.92
2016-12-02T00:54:20.416Z,17.93
2016-12-02T00:54:48.478Z,18
2016-12-02T00:55:17.237Z,17.92
2016-12-02T00:55:47.556Z,17.9
2016-12-02T00:56:17.970Z,17.87
2016-12-02T00:56:45.850Z,17.81
2016-12-02T00:57:13.926Z,17.9
2016-12-02T00:57:42.765Z,17.89
2016-12-02T00:58:12.380Z,17.92
2016-12-02T00:58:40.362Z,17.84
2016-12-02T00:59:08.252Z,17.89
2016-12-02T00:59:37.092Z,17.87
2016-12-02T01:00:05.150Z,17.89
2016-12-02T01:00:34.002Z,17.79
2016-12-02T01:01:02.754Z,17.74
2016-12-02T01:01:31.503Z,17.75
2016-12-02T01:01:59.572Z,17.79
2016-12-02T01:02:28.417Z,17.72
2016-12-02T01:02:58.040Z,17.79
2016-12-02T01:03:25.922Z,17.71
2016-12-02T01:03:53.982Z,17.75
2016-12-02T01:04:22.834Z,17.81
2016-12-02T01:04:50.807Z,17.77
2016-12-02T01:05:18.781Z,17.72
2016-12-02T01:05:47.622Z,17.75
2016-12-02T01:06:16.470Z,17.75
2016-12-02T01:06:44.532Z,17.79
2016-12-02T01:07:13.281Z,17.9
2016-12-02T01:07:42.130Z,17.82
2016-12-02T01:08:10.347Z,17.82
2016-12-02T01:08:38.418Z,17.82
2016-12-02T01:09:06.395Z,17.75
2016-12-02T01:09:34.360Z,17.82
2016-12-02T01:10:03.205Z,17.87
2016-12-02T01:10:31.520Z,17.82
2016-12-02T01:11:01.137Z,17.78
2016-12-02T01:11:29.199Z,17.87
2016-12-02T01:11:58.044Z,17.92
2016-12-02T01:12:26.889Z,17.92
2016-12-02T01:12:54.955Z,17.92
2016-12-02T01:13:23.797Z,17.93
2016-12-02T01:13:52.647Z,17.86
2016-12-02T01:14:59.682Z,17.92
2016-12-02T01:15:28.433Z,17.89
2016-12-02T01:15:58.058Z,17.96
2016-12-02T01:16:25.952Z,17.84
2016-12-02T01:16:54.796Z,17.86
2016-12-02T01:17:22.685Z,17.96
2016-12-02T01:17:51.455Z,17.95
2016-12-02T01:18:20.029Z,17.92
2016-12-02T01:18:48.001Z,17.99
2016-12-02T01:19:16.662Z,17.92
2016-12-02T01:19:45.497Z,18.02
2016-12-02T01:20:13.468Z,17.93
2016-12-02T01:20:41.540Z,17.92
2016-12-02T01:21:09.507Z,18.1
2016-12-02T01:21:37.485Z,17.95
2016-12-02T01:22:06.330Z,17.99
2016-12-02T01:22:34.401Z,18
2016-12-02T01:23:04.808Z,17.99
2016-12-02T01:23:33.021Z,18.02
2016-12-02T01:24:01.771Z,18.05
2016-12-02T01:24:29.747Z,18.05
2016-12-02T01:24:58.599Z,18.1
2016-12-02T01:25:27.442Z,18.07
2016-12-02T01:25:55.512Z,18.1
2016-12-02T01:26:23.485Z,18.05
2016-12-02T01:26:52.325Z,17.95
2016-12-02T01:27:21.169Z,17.95
2016-12-02T01:27:50.013Z,17.95
2016-12-02T01:28:20.425Z,17.9
2016-12-02T01:28:48.408Z,17.92
2016-12-02T01:29:17.255Z,17.9
2016-12-02T01:29:46.021Z,17.87
2016-12-02T01:30:14.875Z,17.86
2016-12-02T01:30:43.531Z,17.89
2016-12-02T01:31:12.382Z,17.95
2016-12-02T01:31:40.352Z,17.86
2016-12-02T01:32:09.193Z,17.87
2016-12-02T01:32:37.216Z,18
2016-12-02T01:33:05.108Z,17.84
2016-12-02T01:33:33.182Z,17.93
2016-12-02T01:34:01.253Z,17.96
2016-12-02T01:34:29.318Z,17.93
2016-12-02T01:34:58.176Z,17.97
2016-12-02T01:35:26.155Z,18
2016-12-02T01:35:54.246Z,18.02
2016-12-02T01:36:23.103Z,17.97
2016-12-02T01:36:51.089Z,18.05
2016-12-02T01:37:18.995Z,17.95
2016-12-02T01:37:46.807Z,17.92
2016-12-02T01:38:14.885Z,18.05
2016-12-02T01:38:43.133Z,18.05
2016-12-02T01:39:11.096Z,18.05
2016-12-02T01:39:39.164Z,17.99
2016-12-02T01:40:08.034Z,17.99
2016-12-02T01:40:36.791Z,18.02
2016-12-02T01:41:04.792Z,17.96
2016-12-02T01:41:32.773Z,17.9
2016-12-02T01:42:00.838Z,17.95
2016-12-02T01:42:29.705Z,17.96
2016-12-02T01:42:58.458Z,17.95
2016-12-02T01:43:26.761Z,17.95
2016-12-02T01:43:54.678Z,17.97
2016-12-02T01:44:23.534Z,17.97
2016-12-02T01:44:51.601Z,17.9
2016-12-02T01:45:19.671Z,17.96
2016-12-02T01:45:48.524Z,17.9
2016-12-02T01:46:18.151Z,17.99
2016-12-02T01:46:46.204Z,17.99
2016-12-02T01:47:14.954Z,17.9
2016-12-02T01:47:42.919Z,17.93
2016-12-02T01:48:11.677Z,17.9
2016-12-02T01:48:39.652Z,17.93
2016-12-02T01:49:08.500Z,17.87
2016-12-02T01:49:37.360Z,17.87
2016-12-02T01:50:05.451Z,17.86
2016-12-02T01:50:33.414Z,17.87
2016-12-02T01:51:03.046Z,17.87
2016-12-02T01:51:31.109Z,17.89
2016-12-02T01:51:59.950Z,17.92
2016-12-02T01:52:27.748Z,17.84
2016-12-02T01:52:56.408Z,17.89
2016-12-02T01:53:24.896Z,17.89
2016-12-02T01:54:31.400Z,17.95
2016-12-02T01:54:59.465Z,17.97
2016-12-02T01:55:28.304Z,17.93
2016-12-02T01:55:56.298Z,17.95
2016-12-02T01:56:24.356Z,17.95
2016-12-02T01:56:53.011Z,17.96
2016-12-02T01:57:20.897Z,17.93
2016-12-02T01:57:48.876Z,17.96
2016-12-02T01:58:16.758Z,18.07
2016-12-02T01:58:44.822Z,18.05
2016-12-02T01:59:13.663Z,18
2016-12-02T01:59:41.730Z,18.03
2016-12-02T02:00:11.269Z,17.99
2016-12-02T02:00:39.244Z,17.97
2016-12-02T02:01:07.315Z,18.02
2016-12-02T02:01:36.172Z,18.03
2016-12-02T02:02:04.170Z,18.02
2016-12-02T02:02:32.241Z,18.05
2016-12-02T02:03:01.873Z,17.96
2016-12-02T02:03:29.767Z,18
2016-12-02T02:03:58.534Z,18.08
2016-12-02T02:04:26.621Z,18.07
2016-12-02T02:04:54.679Z,18.03
2016-12-02T02:05:23.449Z,17.96
2016-12-02T02:05:51.519Z,17.95
2016-12-02T02:06:20.371Z,17.97
2016-12-02T02:06:50.035Z,17.92
2016-12-02T02:07:18.113Z,17.97
2016-12-02T02:07:46.094Z,17.93
2016-12-02T02:08:14.071Z,17.92
2016-12-02T02:08:43.850Z,17.87
2016-12-02T02:09:12.703Z,17.9
2016-12-02T02:09:41.561Z,17.92
2016-12-02T02:10:09.523Z,17.95
2016-12-02T21:45:29.706Z,19.43
2016-12-02T21:45:57.678Z,19.4
2016-12-02T21:46:27.313Z,19.44
2016-12-02T21:46:56.178Z,19.41
2016-12-02T21:47:25.033Z,19.41
2016-12-02T21:47:53.133Z,19.4
2016-12-02T21:48:21.205Z,19.41
2016-12-02T21:48:49.186Z,19.4
2016-12-02T21:49:17.180Z,19.44
2016-12-02T21:49:46.039Z,19.43
2016-12-02T21:50:14.161Z,19.41
2016-12-02T21:50:42.146Z,19.4
2016-12-02T21:51:10.227Z,19.32
2016-12-02T21:51:38.305Z,19.25
2016-12-02T21:52:06.273Z,19.32
2016-12-02T21:52:34.261Z,19.37
2016-12-02T21:53:02.347Z,19.32
2016-12-02T21:53:31.978Z,19.37
2016-12-02T21:54:00.053Z,19.29
2016-12-02T21:54:27.951Z,19.46
2016-12-02T21:54:56.840Z,19.41
2016-12-02T21:55:24.818Z,19.4
2016-12-02T21:55:52.906Z,19.41
2016-12-02T21:56:20.971Z,19.4
